createdAt,value
2019-03-26T00:01:55.009Z,100748.48
2019-03-26T00:04:23.391Z,100747.64
2019-03-26T00:06:51.786Z,100758.61
2019-03-26T00:09:20.219Z,100755.33
2019-03-26T00:11:48.607Z,100756.23
2019-03-26T00:14:17.070Z,100759.22
2019-03-26T00:16:45.497Z,100757.41
2019-03-26T00:19:13.894Z,100756.63
2019-03-26T00:21:42.290Z,100756.70
2019-03-26T00:24:11.284Z,100755.39
2019-03-26T00:26:39.960Z,100753.20
2019-03-26T00:29:08.358Z,100763.31
2019-03-26T00:31:36.773Z,100762.53
2019-03-26T00:34:18.334Z,100762.97
2019-03-26T00:36:35.283Z,100756.77
2019-03-26T00:39:05.817Z,100756.49
2019-03-26T00:41:34.213Z,100762.33
2019-03-26T00:44:02.617Z,100760.55
2019-03-26T00:46:31.032Z,100758.34
2019-03-26T00:48:59.423Z,100764.88
2019-03-26T00:51:27.833Z,100768.41
2019-03-26T00:53:56.313Z,100767.09
2019-03-26T00:56:24.712Z,100768.27
2019-03-26T00:58:53.388Z,100760.89
2019-03-26T01:01:21.780Z,100766.59
2019-03-26T01:03:50.175Z,100769.34
2019-03-26T01:06:18.591Z,100785.05
2019-03-26T01:08:47.052Z,100779.41
2019-03-26T01:11:15.446Z,100783.61
2019-03-26T01:13:43.861Z,100791.27
2019-03-26T01:16:12.251Z,100784.34
2019-03-26T01:18:40.655Z,100785.89
2019-03-26T01:21:09.059Z,100786.50
2019-03-26T01:23:37.789Z,100784.58
2019-03-26T01:26:06.186Z,100784.21
2019-03-26T01:28:34.942Z,100786.23
2019-03-26T01:31:03.338Z,100787.77
2019-03-26T01:33:32.004Z,100788.68
2019-03-26T01:36:00.427Z,100788.47
2019-03-26T01:38:28.899Z,100804.58
2019-03-26T01:40:57.289Z,100803.34
2019-03-26T01:43:25.731Z,100803.64
2019-03-26T01:45:54.125Z,100798.34
2019-03-26T01:48:22.530Z,100800.48
2019-03-26T01:50:50.942Z,100802.60
2019-03-26T01:53:20.415Z,100807.36
2019-03-26T01:55:48.817Z,100807.06
2019-03-26T01:58:17.241Z,100803.11
2019-03-26T02:00:45.629Z,100796.49
2019-03-26T02:03:14.026Z,100799.17
2019-03-26T02:05:42.433Z,100800.59
2019-03-26T02:08:10.829Z,100803.20
2019-03-26T02:10:39.221Z,100797.57
2019-03-26T02:13:08.207Z,100802.87
2019-03-26T02:15:36.596Z,100792.41
2019-03-26T02:18:05.783Z,100792.87
2019-03-26T02:20:34.334Z,100805.63
2019-03-26T02:23:02.866Z,100795.96
2019-03-26T02:25:31.262Z,100788.11
2019-03-26T02:27:59.677Z,100790.86
2019-03-26T02:30:28.717Z,100799.15
2019-03-26T02:32:57.823Z,100797.97
2019-03-26T02:35:26.232Z,100797.91
2019-03-26T02:37:54.637Z,100798.67
2019-03-26T02:40:23.201Z,100795.86
2019-03-26T02:42:51.616Z,100807.64
2019-03-26T02:45:20.014Z,100810.80
2019-03-26T02:47:48.690Z,100813.95
2019-03-26T02:50:17.204Z,100810.25
2019-03-26T02:52:45.573Z,100810.98
2019-03-26T02:55:14.034Z,100805.08
2019-03-26T02:57:43.101Z,100811.02
2019-03-26T03:00:11.833Z,100811.78
2019-03-26T03:02:40.222Z,100807.39
2019-03-26T03:05:09.571Z,100811.61
2019-03-26T03:07:37.969Z,100821.09
2019-03-26T03:10:07.198Z,100822.27
2019-03-26T03:12:35.616Z,100819.17
2019-03-26T03:15:05.647Z,100826.12
2019-03-26T03:17:34.034Z,100831.64
2019-03-26T03:20:03.523Z,100834.03
2019-03-26T03:22:31.917Z,100833.89
2019-03-26T03:25:00.536Z,100829.94
2019-03-26T03:27:29.016Z,100840.17
2019-03-26T03:29:57.488Z,100840.58
2019-03-26T03:32:26.246Z,100833.49
2019-03-26T03:34:54.651Z,100835.64
2019-03-26T03:37:23.036Z,100838.19
2019-03-26T03:39:51.527Z,100839.97
2019-03-26T03:42:19.917Z,100841.70
2019-03-26T03:44:48.309Z,100838.88
2019-03-26T03:47:19.031Z,100844.30
2019-03-26T03:49:47.860Z,100839.76
2019-03-26T03:52:17.696Z,100841.90
2019-03-26T03:54:47.795Z,100844.52
2019-03-26T03:57:17.960Z,100847.06
2019-03-26T03:59:47.004Z,100851.27
2019-03-26T04:02:15.418Z,100850.30
2019-03-26T04:04:43.827Z,100848.52
2019-03-26T04:07:12.212Z,100849.34
2019-03-26T04:09:41.110Z,100855.45
2019-03-26T04:12:09.495Z,100866.48
2019-03-26T04:14:37.880Z,100868.27
2019-03-26T04:17:06.297Z,100874.81
2019-03-26T04:19:34.692Z,100869.22
2019-03-26T04:22:03.104Z,100873.50
2019-03-26T04:24:31.505Z,100869.17
2019-03-26T04:26:59.905Z,100868.72
2019-03-26T04:29:28.297Z,100870.17
2019-03-26T04:31:56.731Z,100880.78
2019-03-26T04:34:25.139Z,100881.03
2019-03-26T04:36:53.508Z,100884.53
2019-03-26T04:39:21.926Z,100882.00
2019-03-26T04:41:50.322Z,100878.45
2019-03-26T04:44:18.719Z,100872.44
2019-03-26T04:46:47.173Z,100872.88
2019-03-26T04:49:15.570Z,100883.38
2019-03-26T04:51:43.953Z,100879.14
2019-03-26T04:54:12.369Z,100882.48
2019-03-26T04:56:40.798Z,100871.80
2019-03-26T04:59:09.197Z,100886.48
2019-03-26T05:01:37.615Z,100889.33
2019-03-26T05:04:06.009Z,100894.02
2019-03-26T05:06:38.192Z,100891.27
2019-03-26T05:09:05.351Z,100889.41
2019-03-26T05:11:33.733Z,100896.20
2019-03-26T05:14:02.162Z,100893.95
2019-03-26T05:16:30.913Z,100892.83
2019-03-26T05:19:00.923Z,100892.22
2019-03-26T05:21:31.465Z,100889.34
2019-03-26T05:24:00.303Z,100882.98
2019-03-26T05:26:29.312Z,100877.14
2019-03-26T05:28:57.728Z,100879.61
2019-03-26T05:31:26.121Z,100882.23
2019-03-26T05:33:54.956Z,100879.97
2019-03-26T05:36:23.507Z,100876.81
2019-03-26T05:38:52.153Z,100883.60
2019-03-26T05:41:20.814Z,100895.80
2019-03-26T05:43:49.231Z,100895.30
2019-03-26T05:46:17.623Z,100884.72
2019-03-26T05:48:46.032Z,100888.09
2019-03-26T05:51:14.466Z,100888.42
2019-03-26T05:53:42.865Z,100890.06
2019-03-26T05:56:13.995Z,100893.51
2019-03-26T05:58:42.385Z,100896.12
2019-03-26T06:01:11.167Z,100898.41
2019-03-26T06:03:39.718Z,100897.30
2019-03-26T06:06:08.111Z,100898.20
2019-03-26T06:08:36.529Z,100900.34
2019-03-26T06:11:05.680Z,100892.21
2019-03-26T06:13:34.930Z,100897.59
2019-03-26T06:16:03.282Z,100903.37
2019-03-26T06:18:31.941Z,100904.06
2019-03-26T06:21:00.364Z,100912.27
2019-03-26T06:23:28.764Z,100901.23
2019-03-26T06:25:57.195Z,100901.66
2019-03-26T06:28:25.620Z,100895.32
2019-03-26T06:30:54.363Z,100886.25
2019-03-26T06:33:22.760Z,100893.47
2019-03-26T06:35:51.349Z,100890.73
2019-03-26T06:38:19.738Z,100884.48
2019-03-26T06:40:48.135Z,100879.62
2019-03-26T06:43:16.556Z,100880.30
2019-03-26T06:45:44.956Z,100888.72
2019-03-26T06:48:13.344Z,100886.58
2019-03-26T06:50:41.757Z,100884.62
2019-03-26T06:53:10.146Z,100892.80
2019-03-26T06:55:39.108Z,100893.12
2019-03-26T06:58:07.532Z,100898.48
2019-03-26T07:00:36.094Z,100899.89
2019-03-26T07:03:06.525Z,100898.59
2019-03-26T07:05:34.970Z,100902.17
2019-03-26T07:08:03.434Z,100897.53
2019-03-26T07:10:31.897Z,100900.50
2019-03-26T07:13:00.314Z,100903.66
2019-03-26T07:15:28.707Z,100903.97
2019-03-26T07:17:57.097Z,100908.55
2019-03-26T07:20:25.512Z,100907.18
2019-03-26T07:22:54.077Z,100916.11
2019-03-26T07:25:22.537Z,100918.02
2019-03-26T07:27:50.952Z,100921.86
2019-03-26T07:30:38.620Z,100917.11
2019-03-26T07:33:07.031Z,100918.66
2019-03-26T07:35:35.430Z,100917.98
2019-03-26T07:38:03.986Z,100919.36
2019-03-26T07:40:32.566Z,100926.97
2019-03-26T07:43:00.958Z,100919.48
2019-03-26T07:45:29.420Z,100921.14
2019-03-26T07:47:57.835Z,100922.83
2019-03-26T07:50:26.229Z,100919.69
2019-03-26T07:52:54.655Z,100936.98
2019-03-26T07:55:23.075Z,100937.88
2019-03-26T07:57:51.544Z,100941.45
2019-03-26T08:00:25.762Z,100935.52
2019-03-26T08:02:54.179Z,100947.89
2019-03-26T08:05:29.698Z,100947.05
2019-03-26T08:07:58.167Z,100950.48
2019-03-26T08:10:22.859Z,100953.76
2019-03-26T08:12:51.267Z,100947.89
2019-03-26T08:15:20.338Z,100950.65
2019-03-26T08:17:48.945Z,100951.87
2019-03-26T08:20:17.407Z,100958.31
2019-03-26T08:22:45.809Z,100955.63
2019-03-26T08:25:14.289Z,100961.81
2019-03-26T08:27:42.689Z,100960.55
2019-03-26T08:30:11.520Z,100962.97
2019-03-26T08:32:39.937Z,100967.30
2019-03-26T08:35:08.399Z,100968.64
2019-03-26T08:37:36.813Z,100975.79
2019-03-26T08:40:07.470Z,100972.70
2019-03-26T08:42:35.860Z,100969.37
2019-03-26T08:45:08.308Z,100964.41
2019-03-26T08:47:36.746Z,100962.56
2019-03-26T08:50:07.074Z,100969.13
2019-03-26T08:52:35.521Z,100970.45
2019-03-26T08:55:05.358Z,100977.86
2019-03-26T08:57:34.021Z,100973.80
2019-03-26T09:00:02.416Z,100980.89
2019-03-26T09:02:30.837Z,100981.53
2019-03-26T09:04:59.228Z,100980.36
2019-03-26T09:07:27.617Z,100978.32
2019-03-26T09:09:56.027Z,100977.98
2019-03-26T09:12:24.419Z,100985.47
2019-03-26T09:14:53.061Z,100983.03
2019-03-26T09:17:21.479Z,100981.27
2019-03-26T09:19:49.870Z,100987.48
2019-03-26T09:22:18.285Z,100984.38
2019-03-26T09:24:46.675Z,100987.47
2019-03-26T09:27:15.090Z,100988.17
2019-03-26T09:29:43.754Z,100991.38
2019-03-26T09:32:12.437Z,100989.33
2019-03-26T09:34:40.860Z,100989.22
2019-03-26T09:37:09.247Z,100988.95
2019-03-26T09:39:38.482Z,100988.63
2019-03-26T09:42:07.053Z,100990.31
2019-03-26T09:44:35.443Z,100987.55
2019-03-26T09:47:15.658Z,100993.73
2019-03-26T09:49:34.344Z,100987.98
2019-03-26T09:52:02.679Z,100986.62
2019-03-26T09:54:31.091Z,100985.99
2019-03-26T09:56:59.552Z,100986.13
2019-03-26T09:59:27.949Z,100982.69
2019-03-26T10:01:56.369Z,100983.44
2019-03-26T10:04:25.041Z,100977.97
2019-03-26T10:06:53.435Z,100970.08
2019-03-26T10:09:21.851Z,100961.33
2019-03-26T10:11:50.245Z,100960.13
2019-03-26T10:14:18.634Z,100957.62
2019-03-26T10:16:47.229Z,100955.31
2019-03-26T10:19:17.138Z,100955.75
2019-03-26T10:21:45.760Z,100949.44
2019-03-26T10:24:14.353Z,100953.73
2019-03-26T10:26:42.745Z,100946.70
2019-03-26T10:29:28.815Z,100945.06
2019-03-26T10:31:41.304Z,100940.59
2019-03-26T10:34:09.705Z,100947.20
2019-03-26T10:36:41.455Z,100937.23
2019-03-26T10:39:08.986Z,100931.94
2019-03-26T10:41:37.488Z,100921.09
2019-03-26T10:44:05.859Z,100921.52
2019-03-26T10:46:34.282Z,100913.77
2019-03-26T10:49:02.674Z,100918.66
2019-03-26T10:51:31.069Z,100924.35
2019-03-26T10:53:59.491Z,100926.78
2019-03-26T10:56:27.889Z,100927.20
2019-03-26T10:58:56.312Z,100927.32
2019-03-26T11:01:24.758Z,100924.83
2019-03-26T11:03:53.151Z,100923.77
2019-03-26T11:06:21.714Z,100920.12
2019-03-26T11:08:50.143Z,100916.80
2019-03-26T11:11:18.541Z,100914.03
2019-03-26T11:13:46.935Z,100907.94
2019-03-26T11:16:15.363Z,100904.30
2019-03-26T11:18:43.760Z,100909.06
2019-03-26T11:21:12.157Z,100908.03
2019-03-26T11:23:40.585Z,100904.80
2019-03-26T11:26:09.004Z,100899.34
2019-03-26T11:28:37.399Z,100892.53
2019-03-26T11:31:06.001Z,100887.77
2019-03-26T11:33:34.423Z,100884.75
2019-03-26T11:36:02.832Z,100890.50
2019-03-26T11:38:31.224Z,100893.43
2019-03-26T11:40:59.646Z,100890.61
2019-03-26T11:43:28.956Z,100890.91
2019-03-26T11:45:57.342Z,100887.23
2019-03-26T11:48:25.779Z,100881.55
2019-03-26T11:50:54.175Z,100879.80
2019-03-26T11:53:22.738Z,100886.46
2019-03-26T11:55:51.158Z,100884.28
2019-03-26T11:58:29.815Z,100887.14
2019-03-26T12:00:49.695Z,100883.78
2019-03-26T12:03:18.117Z,100887.41
2019-03-26T12:05:46.830Z,100884.45
2019-03-26T12:08:15.246Z,100882.93
2019-03-26T12:10:43.655Z,100876.17
2019-03-26T12:13:12.066Z,100868.40
2019-03-26T12:15:40.489Z,100857.50
2019-03-26T12:18:09.251Z,100857.83
2019-03-26T12:20:37.649Z,100861.95
2019-03-26T12:23:06.102Z,100855.23
2019-03-26T12:25:34.488Z,100854.36
2019-03-26T12:28:02.904Z,100849.19
2019-03-26T12:30:33.981Z,100857.16
2019-03-26T12:33:02.373Z,100863.02
2019-03-26T12:35:31.240Z,100860.98
2019-03-26T12:37:59.802Z,100853.00
2019-03-26T12:40:28.383Z,100858.02
2019-03-26T12:42:56.832Z,100855.35
2019-03-26T12:45:25.183Z,100850.27
2019-03-26T12:47:53.578Z,100851.03
2019-03-26T12:50:21.974Z,100845.91
2019-03-26T12:52:50.397Z,100854.88
2019-03-26T12:55:18.803Z,100854.78
2019-03-26T12:57:47.203Z,100859.12
2019-03-26T13:00:15.864Z,100848.59
2019-03-26T13:02:44.266Z,100856.06
2019-03-26T13:05:13.021Z,100857.07
2019-03-26T13:07:41.417Z,100854.39
2019-03-26T13:10:13.741Z,100852.73
2019-03-26T13:12:40.325Z,100851.94
2019-03-26T13:15:08.959Z,100851.84
2019-03-26T13:17:37.374Z,100848.52
2019-03-26T13:20:07.274Z,100848.09
2019-03-26T13:22:35.683Z,100852.45
2019-03-26T13:25:06.121Z,100849.23
2019-03-26T13:27:34.536Z,100843.50
2019-03-26T13:30:03.103Z,100845.50
2019-03-26T13:32:31.502Z,100842.17
2019-03-26T13:34:59.921Z,100839.98
2019-03-26T13:37:28.326Z,100837.28
2019-03-26T13:39:56.718Z,100838.83
2019-03-26T13:42:25.140Z,100831.55
2019-03-26T13:44:53.546Z,100829.50
2019-03-26T13:47:21.939Z,100824.92
2019-03-26T13:49:50.350Z,100827.24
2019-03-26T13:52:19.074Z,100825.33
2019-03-26T13:54:47.476Z,100827.56
2019-03-26T13:57:15.893Z,100826.34
2019-03-26T13:59:44.342Z,100823.69
2019-03-26T14:02:12.692Z,100823.94
2019-03-26T14:04:41.117Z,100814.08
2019-03-26T14:07:09.512Z,100817.34
2019-03-26T14:09:37.908Z,100816.23
2019-03-26T14:12:06.327Z,100811.43
2019-03-26T14:14:34.725Z,100815.09
2019-03-26T14:17:05.551Z,100815.23
2019-03-26T14:19:33.271Z,100799.87
2019-03-26T14:22:01.678Z,100795.78
2019-03-26T14:24:30.076Z,100792.30
2019-03-26T14:26:58.492Z,100791.66
2019-03-26T14:29:26.889Z,100789.05
2019-03-26T14:31:55.295Z,100786.78
2019-03-26T14:34:23.771Z,100797.74
2019-03-26T14:36:52.173Z,100795.67
2019-03-26T14:39:20.565Z,100808.45
2019-03-26T14:41:48.981Z,100817.38
2019-03-26T14:44:17.384Z,100807.91
2019-03-26T14:46:45.780Z,100814.25
2019-03-26T14:49:14.202Z,100807.53
2019-03-26T14:51:42.600Z,100802.22
2019-03-26T14:54:11.001Z,100804.83
2019-03-26T14:56:39.419Z,100803.95
2019-03-26T14:59:07.883Z,100811.67
2019-03-26T15:01:36.249Z,100815.48
2019-03-26T15:04:04.833Z,100816.59
2019-03-26T15:06:33.242Z,100814.74
2019-03-26T15:09:01.634Z,100813.14
2019-03-26T15:11:30.069Z,100812.93
2019-03-26T15:13:58.467Z,100817.68
2019-03-26T15:16:26.864Z,100809.62
2019-03-26T15:18:55.299Z,100811.73
2019-03-26T15:21:23.694Z,100811.20
2019-03-26T15:23:52.135Z,100805.18
2019-03-26T15:26:20.512Z,100811.16
2019-03-26T15:28:48.903Z,100805.14
2019-03-26T15:31:17.384Z,100806.61
2019-03-26T15:33:45.870Z,100806.20
2019-03-26T15:36:14.253Z,100801.72
2019-03-26T15:38:43.033Z,100805.94
2019-03-26T15:41:21.023Z,100815.58
2019-03-26T15:43:41.931Z,100819.87
2019-03-26T15:46:10.378Z,100818.77
2019-03-26T15:48:38.773Z,100823.55
2019-03-26T15:51:07.176Z,100821.80
2019-03-26T15:53:35.605Z,100824.87
2019-03-26T15:56:04.072Z,100820.20
2019-03-26T15:58:32.469Z,100827.55
2019-03-26T16:01:01.122Z,100823.10
2019-03-26T16:03:29.512Z,100829.09
2019-03-26T16:05:57.902Z,100820.10
2019-03-26T16:08:26.318Z,100825.64
2019-03-26T16:10:54.711Z,100830.55
2019-03-26T16:13:23.106Z,100833.13
2019-03-26T16:15:51.961Z,100833.98
2019-03-26T16:18:20.502Z,100826.35
2019-03-26T16:20:48.983Z,100818.91
2019-03-26T16:23:17.380Z,100826.72
2019-03-26T16:25:45.771Z,100826.94
2019-03-26T16:28:14.175Z,100835.13
2019-03-26T16:30:42.582Z,100824.92
2019-03-26T16:33:10.992Z,100827.81
2019-03-26T16:35:40.426Z,100834.70
2019-03-26T16:38:08.868Z,100832.38
2019-03-26T16:40:37.290Z,100834.09
2019-03-26T16:43:05.853Z,100832.72
2019-03-26T16:45:34.257Z,100837.42
2019-03-26T16:48:02.687Z,100837.79
2019-03-26T16:50:31.071Z,100838.94
2019-03-26T16:52:59.467Z,100836.84
2019-03-26T16:55:27.877Z,100847.26
2019-03-26T16:57:56.271Z,100839.77
2019-03-26T17:00:32.009Z,100843.27
2019-03-26T17:03:01.096Z,100850.34
2019-03-26T17:05:29.784Z,100843.31
2019-03-26T17:07:58.185Z,100848.47
2019-03-26T17:10:26.598Z,100856.75
2019-03-26T17:12:54.995Z,100848.86
2019-03-26T17:15:23.393Z,100847.10
2019-03-26T17:17:51.817Z,100849.33
2019-03-26T17:20:20.209Z,100852.47
2019-03-26T17:22:48.602Z,100849.98
2019-03-26T17:25:17.018Z,100854.29
2019-03-26T17:27:45.411Z,100869.71
2019-03-26T17:30:14.167Z,100860.87
2019-03-26T17:32:42.587Z,100866.08
2019-03-26T17:35:11.532Z,100872.62
2019-03-26T17:37:39.924Z,100865.09
2019-03-26T17:40:08.576Z,100868.09
2019-03-26T17:42:36.998Z,100867.32
2019-03-26T17:45:07.091Z,100869.61
2019-03-26T17:47:35.480Z,100871.31
2019-03-26T17:50:07.709Z,100869.84
2019-03-26T17:52:36.104Z,100872.78
2019-03-26T17:55:07.040Z,100871.91
2019-03-26T17:57:35.744Z,100870.16
2019-03-26T18:00:06.179Z,100877.12
2019-03-26T18:02:34.577Z,100877.97
2019-03-26T18:05:03.064Z,100877.97
2019-03-26T18:07:31.466Z,100883.28
2019-03-26T18:10:00.379Z,100885.52
2019-03-26T18:12:31.048Z,100881.17
2019-03-26T18:14:58.891Z,100889.52
2019-03-26T18:17:27.317Z,100889.41
2019-03-26T18:19:55.711Z,100890.63
2019-03-26T18:22:24.141Z,100888.05
2019-03-26T18:24:52.559Z,100891.94
2019-03-26T18:27:20.937Z,100896.78
2019-03-26T18:29:49.347Z,100895.42
2019-03-26T18:32:17.741Z,100893.59
2019-03-26T18:34:46.140Z,100900.96
2019-03-26T18:37:14.559Z,100895.59
2019-03-26T18:39:43.289Z,100894.18
2019-03-26T18:42:11.681Z,100893.72
2019-03-26T18:44:40.105Z,100890.98
2019-03-26T18:47:08.504Z,100890.36
2019-03-26T18:49:36.895Z,100896.41
2019-03-26T18:52:05.318Z,100899.45
2019-03-26T18:54:33.710Z,100909.91
2019-03-26T18:57:02.108Z,100904.08
2019-03-26T18:59:30.537Z,100909.25
2019-03-26T19:01:58.934Z,100911.66
2019-03-26T19:04:27.335Z,100916.80
2019-03-26T19:06:55.757Z,100916.23
2019-03-26T19:09:24.154Z,100923.53
2019-03-26T19:11:52.562Z,100923.42
2019-03-26T19:14:20.971Z,100925.94
2019-03-26T19:16:49.370Z,100920.22
2019-03-26T19:19:17.763Z,100924.09
2019-03-26T19:21:46.176Z,100920.55
2019-03-26T19:24:15.447Z,100924.89
2019-03-26T19:26:43.843Z,100925.73
2019-03-26T19:29:12.255Z,100924.02
2019-03-26T19:31:40.645Z,100929.80
2019-03-26T19:34:09.048Z,100925.41
2019-03-26T19:36:37.461Z,100920.27
2019-03-26T19:39:07.307Z,100919.48
2019-03-26T19:41:35.869Z,100922.33
2019-03-26T19:44:04.288Z,100921.70
2019-03-26T19:46:32.678Z,100917.21
2019-03-26T19:49:01.078Z,100921.02
2019-03-26T19:51:29.482Z,100920.39
2019-03-26T19:53:57.887Z,100919.98
2019-03-26T19:56:26.281Z,100923.91
2019-03-26T19:58:54.692Z,100923.61
2019-03-26T20:01:23.098Z,100934.45
2019-03-26T20:03:51.491Z,100938.91
2019-03-26T20:06:19.921Z,100936.78
2019-03-26T20:08:48.323Z,100940.84
2019-03-26T20:11:16.716Z,100937.42
2019-03-26T20:13:45.141Z,100940.87
2019-03-26T20:16:13.540Z,100934.16
2019-03-26T20:18:41.937Z,100934.67
2019-03-26T20:21:10.356Z,100930.38
2019-03-26T20:23:38.764Z,100934.09
2019-03-26T20:26:07.150Z,100923.84
2019-03-26T20:28:35.566Z,100938.64
2019-03-26T20:31:03.958Z,100938.55
2019-03-26T20:33:32.357Z,100941.53
2019-03-26T20:36:01.095Z,100940.56
2019-03-26T20:38:29.486Z,100933.98
2019-03-26T20:40:57.873Z,100937.86
2019-03-26T20:43:36.731Z,100934.79
2019-03-26T20:45:56.721Z,100934.33
2019-03-26T20:48:25.121Z,100942.61
2019-03-26T20:50:53.539Z,100933.34
2019-03-26T20:53:21.929Z,100935.47
2019-03-26T20:55:54.425Z,100938.47
2019-03-26T20:58:20.760Z,100943.26
2019-03-26T21:00:49.187Z,100933.45
2019-03-26T21:03:17.556Z,100932.86
2019-03-26T21:05:45.979Z,100939.63
2019-03-26T21:08:14.377Z,100928.13
2019-03-26T21:10:42.773Z,100934.52
2019-03-26T21:13:11.207Z,100931.23
2019-03-26T21:15:42.619Z,100934.24
2019-03-26T21:18:09.713Z,100930.19
2019-03-26T21:20:38.209Z,100925.28
2019-03-26T21:23:06.535Z,100933.03
2019-03-26T21:25:35.295Z,100928.63
2019-03-26T21:28:03.882Z,100936.50
2019-03-26T21:30:32.272Z,100945.22
2019-03-26T21:33:00.663Z,100947.46
2019-03-26T21:35:29.210Z,100948.19
2019-03-26T21:37:57.662Z,100947.59
2019-03-26T21:40:27.694Z,100950.13
2019-03-26T21:42:56.113Z,100957.49
2019-03-26T21:45:27.553Z,100960.55
2019-03-26T21:47:55.968Z,100962.20
2019-03-26T21:50:24.365Z,100965.73
2019-03-26T21:52:52.768Z,100953.74
2019-03-26T21:55:21.185Z,100955.77
2019-03-26T21:57:49.579Z,100953.08
2019-03-26T22:00:18.252Z,100947.77
2019-03-26T22:02:46.645Z,100948.68
2019-03-26T22:05:15.232Z,100949.09
2019-03-26T22:07:43.653Z,100944.69
2019-03-26T22:10:12.490Z,100941.93
2019-03-26T22:12:40.886Z,100937.80
2019-03-26T22:15:10.547Z,100944.80
2019-03-26T22:17:38.944Z,100942.12
2019-03-26T22:20:07.784Z,100949.52
2019-03-26T22:22:36.205Z,100947.23
2019-03-26T22:25:06.534Z,100936.40
2019-03-26T22:27:34.928Z,100936.75
2019-03-26T22:30:03.618Z,100938.31
2019-03-26T22:32:32.022Z,100936.03
2019-03-26T22:35:01.069Z,100929.56
2019-03-26T22:37:29.460Z,100934.15
2019-03-26T22:39:58.188Z,100927.53
2019-03-26T22:42:26.607Z,100926.16
2019-03-26T22:44:54.998Z,100931.34
2019-03-26T22:47:23.732Z,100928.48
2019-03-26T22:49:52.161Z,100936.87
2019-03-26T22:52:20.551Z,100941.87
2019-03-26T22:54:48.941Z,100940.97
2019-03-26T22:57:17.376Z,100943.78
2019-03-26T22:59:45.784Z,100944.97
2019-03-26T23:02:14.180Z,100948.84
2019-03-26T23:04:42.577Z,100940.16
2019-03-26T23:07:10.983Z,100951.71
2019-03-26T23:09:39.400Z,100953.42
2019-03-26T23:12:07.795Z,100955.65
2019-03-26T23:14:45.139Z,100955.71
2019-03-26T23:17:06.410Z,100957.21
2019-03-26T23:19:35.118Z,100943.38
2019-03-26T23:22:03.514Z,100953.07
2019-03-26T23:24:31.951Z,100955.98
2019-03-26T23:27:00.343Z,100950.67
2019-03-26T23:29:28.744Z,100952.95
2019-03-26T23:31:57.245Z,100951.63
2019-03-26T23:34:25.583Z,100949.95
2019-03-26T23:36:53.983Z,100951.75
2019-03-26T23:39:22.382Z,100951.25
2019-03-26T23:41:50.773Z,100955.31
2019-03-26T23:44:25.641Z,100953.28
2019-03-26T23:46:49.321Z,100953.66
2019-03-26T23:49:17.715Z,100959.19
2019-03-26T23:51:46.129Z,100957.81
2019-03-26T23:54:14.531Z,100952.75
2019-03-26T23:56:42.923Z,100954.59
2019-03-26T23:59:11.344Z,100956.69
